createdAt,value
2019-03-01T00:05:44.462Z,63.40
2019-03-01T00:11:35.003Z,64.39
2019-03-01T00:17:03.723Z,63.70
2019-03-01T00:22:35.545Z,64.40
2019-03-01T00:28:32.520Z,64.47
2019-03-01T00:34:03.757Z,64.73
2019-03-01T00:39:35.944Z,64.77
2019-03-01T00:44:41.921Z,65.37
2019-03-01T00:49:46.147Z,65.59
2019-03-01T00:54:50.696Z,65.17
2019-03-01T00:59:54.946Z,65.14
2019-03-01T01:04:59.220Z,64.65
2019-03-01T01:10:03.706Z,64.44
2019-03-01T01:15:08.134Z,64.24
2019-03-01T01:20:12.347Z,65.04
2019-03-01T01:25:16.557Z,65.24
2019-03-01T01:30:20.789Z,65.05
2019-03-01T01:35:28.928Z,64.06
2019-03-01T01:40:33.174Z,63.56
2019-03-01T01:45:37.396Z,63.32
2019-03-01T01:50:41.607Z,62.86
2019-03-01T01:55:45.821Z,63.10
2019-03-01T02:00:50.047Z,64.12
2019-03-01T02:05:54.481Z,64.55
2019-03-01T02:10:58.919Z,63.61
2019-03-01T02:16:03.156Z,63.34
2019-03-01T02:21:07.396Z,63.45
2019-03-01T02:26:11.646Z,65.02
2019-03-01T02:31:17.091Z,64.91
2019-03-01T02:36:21.385Z,65.10
2019-03-01T02:41:25.629Z,65.24
2019-03-01T02:46:29.865Z,65.53
2019-03-01T02:51:34.085Z,65.25
2019-03-01T02:56:38.318Z,66.19
2019-03-01T03:01:42.546Z,65.65
2019-03-01T03:06:54.766Z,65.42
2019-03-01T03:11:59.008Z,64.97
2019-03-01T03:17:03.521Z,65.21
2019-03-01T03:22:07.752Z,64.54
2019-03-01T03:27:12.028Z,64.29
2019-03-01T03:32:16.248Z,63.73
2019-03-01T03:37:20.477Z,63.76
2019-03-01T03:42:24.706Z,64.80
2019-03-01T03:47:28.931Z,64.37
2019-03-01T03:52:33.168Z,63.74
2019-03-01T03:57:37.404Z,64.00
2019-03-01T04:02:41.815Z,63.80
2019-03-01T04:07:46.751Z,64.75
2019-03-01T04:12:50.993Z,65.91
2019-03-01T04:17:55.233Z,65.17
2019-03-01T04:22:59.459Z,64.93
2019-03-01T04:28:03.694Z,65.28
2019-03-01T04:33:08.011Z,65.38
2019-03-01T04:38:12.232Z,65.84
2019-03-01T04:43:16.467Z,66.28
2019-03-01T04:48:20.703Z,66.11
2019-03-01T04:53:25.003Z,65.77
2019-03-01T04:58:29.067Z,66.69
2019-03-01T05:03:33.288Z,67.32
2019-03-01T05:08:37.516Z,68.49
2019-03-01T05:13:41.744Z,68.38
2019-03-01T05:18:45.976Z,68.60
2019-03-01T05:23:50.204Z,67.97
2019-03-01T05:28:54.437Z,67.65
2019-03-01T05:33:58.674Z,67.38
2019-03-01T05:39:03.179Z,67.13
2019-03-01T05:44:07.404Z,66.96
2019-03-01T05:49:11.648Z,68.39
2019-03-01T05:54:15.885Z,69.16
2019-03-01T05:59:22.667Z,69.39
2019-03-01T06:04:59.708Z,69.97
2019-03-01T06:10:11.688Z,70.13
2019-03-01T06:16:08.715Z,70.85
2019-03-01T06:21:22.437Z,70.62
2019-03-01T06:26:55.660Z,69.66
2019-03-01T06:32:42.286Z,68.99
2019-03-01T06:39:04.262Z,68.99
2019-03-01T06:44:45.343Z,69.83
2019-03-01T06:50:13.086Z,70.26
2019-03-01T06:55:38.439Z,70.19
2019-03-01T07:00:50.163Z,70.53
2019-03-01T07:05:51.468Z,69.80
2019-03-01T07:10:55.692Z,68.19
2019-03-01T07:15:59.925Z,67.21
2019-03-01T07:21:04.146Z,66.49
2019-03-01T07:26:08.375Z,66.23
2019-03-01T07:31:12.604Z,66.28
2019-03-01T07:36:16.839Z,66.18
2019-03-01T07:41:21.082Z,66.00
2019-03-01T07:46:25.375Z,66.33
2019-03-01T07:52:17.811Z,66.44
2019-03-01T07:57:22.062Z,66.19
2019-03-01T08:02:26.321Z,65.81
2019-03-01T08:07:30.556Z,65.47
2019-03-01T08:12:34.790Z,65.30
2019-03-01T08:17:39.090Z,65.36
2019-03-01T08:22:48.633Z,65.35
2019-03-01T08:27:50.423Z,65.23
2019-03-01T08:32:54.933Z,65.48
2019-03-01T08:37:59.157Z,65.52
2019-03-01T08:43:03.398Z,68.89
2019-03-01T08:48:07.836Z,68.37
2019-03-01T08:53:15.083Z,69.33
2019-03-01T08:58:18.092Z,68.27
2019-03-01T09:03:36.372Z,66.09
2019-03-01T09:08:42.936Z,66.27
2019-03-01T09:13:46.603Z,66.85
2019-03-01T09:18:50.982Z,66.24
2019-03-01T09:23:55.274Z,66.09
2019-03-01T09:28:59.509Z,66.31
2019-03-01T09:34:06.064Z,67.34
2019-03-01T09:39:10.466Z,66.41
2019-03-01T09:44:14.712Z,66.42
2019-03-01T09:49:21.510Z,67.02
2019-03-01T09:54:24.944Z,67.81
2019-03-01T09:59:29.173Z,67.83
2019-03-01T10:04:33.398Z,67.21
2019-03-01T10:09:37.628Z,66.61
2019-03-01T10:14:41.864Z,66.30
2019-03-01T10:19:46.093Z,66.17
2019-03-01T10:24:50.337Z,66.42
2019-03-01T10:29:54.567Z,66.83
2019-03-01T10:34:58.923Z,66.88
2019-03-01T10:40:03.282Z,67.19
2019-03-01T10:45:10.076Z,67.41
2019-03-01T10:50:14.571Z,67.34
2019-03-01T10:55:18.837Z,67.72
2019-03-01T11:00:24.735Z,68.76
2019-03-01T11:05:29.015Z,69.51
2019-03-01T11:10:35.502Z,69.97
2019-03-01T11:15:39.738Z,69.47
2019-03-01T11:20:44.318Z,68.96
2019-03-01T11:25:48.560Z,68.68
2019-03-01T11:30:52.793Z,69.43
2019-03-01T11:35:57.042Z,69.26
2019-03-01T11:41:01.501Z,69.02
2019-03-01T11:46:06.244Z,68.08
2019-03-01T11:51:10.501Z,67.22
2019-03-01T11:56:14.923Z,67.98
2019-03-01T12:01:19.192Z,67.61
2019-03-01T12:06:23.700Z,67.36
2019-03-01T12:11:27.938Z,66.25
2019-03-01T12:16:32.235Z,66.17
2019-03-01T12:21:36.478Z,66.27
2019-03-01T12:26:40.713Z,66.08
2019-03-01T12:31:44.974Z,66.88
2019-03-01T12:36:49.776Z,65.54
2019-03-01T12:41:54.021Z,65.34
2019-03-01T12:46:58.493Z,66.28
2019-03-01T12:52:02.833Z,66.04
2019-03-01T12:57:07.963Z,65.89
2019-03-01T13:02:12.237Z,66.57
2019-03-01T13:07:16.315Z,66.77
2019-03-01T13:12:22.407Z,66.52
2019-03-01T13:17:26.774Z,66.21
2019-03-01T13:22:31.122Z,66.25
2019-03-01T13:27:35.640Z,67.59
2019-03-01T13:32:39.906Z,70.41
2019-03-01T13:37:44.318Z,65.00
2019-03-01T13:42:50.645Z,63.93
2019-03-01T13:47:54.546Z,65.35
2019-03-01T13:52:58.832Z,65.31
2019-03-01T13:58:03.065Z,65.26
2019-03-01T14:03:07.287Z,63.62
2019-03-01T14:08:11.531Z,61.85
2019-03-01T14:13:16.149Z,60.00
2019-03-01T14:18:20.416Z,59.84
2019-03-01T14:23:25.878Z,58.96
2019-03-01T14:28:30.187Z,58.09
2019-03-01T14:33:34.401Z,57.91
2019-03-01T14:38:38.634Z,57.09
2019-03-01T14:43:43.049Z,55.94
2019-03-01T14:48:47.371Z,55.53
2019-03-01T14:53:51.596Z,55.89
2019-03-01T14:59:16.832Z,55.62
2019-03-01T15:04:21.084Z,55.68
2019-03-01T15:09:25.524Z,54.25
2019-03-01T15:14:29.867Z,54.08
2019-03-01T15:19:34.105Z,53.03
2019-03-01T15:24:38.329Z,53.46
2019-03-01T15:29:42.593Z,53.24
2019-03-01T15:34:46.814Z,53.13
2019-03-01T15:39:51.307Z,53.20
2019-03-01T15:44:57.007Z,52.93
2019-03-01T15:50:01.235Z,52.34
2019-03-01T15:55:07.841Z,51.95
2019-03-01T16:00:13.543Z,52.43
2019-03-01T16:05:17.755Z,52.33
2019-03-01T16:10:22.010Z,52.02
2019-03-01T16:15:26.248Z,51.51
2019-03-01T16:20:30.755Z,51.81
2019-03-01T16:25:34.979Z,51.75
2019-03-01T16:30:39.219Z,51.94
2019-03-01T16:35:43.495Z,51.34
2019-03-01T16:40:47.757Z,51.92
2019-03-01T16:45:53.266Z,51.58
2019-03-01T16:50:58.428Z,50.81
2019-03-01T16:56:03.468Z,50.62
2019-03-01T17:01:08.764Z,50.92
2019-03-01T17:06:13.795Z,50.32
2019-03-01T17:11:18.988Z,49.50
2019-03-01T17:16:23.732Z,48.91
2019-03-01T17:21:28.942Z,49.14
2019-03-01T17:26:33.170Z,48.78
2019-03-01T17:31:37.402Z,50.07
2019-03-01T17:36:41.666Z,50.55
2019-03-01T17:41:48.349Z,51.17
2019-03-01T17:46:52.152Z,51.17
2019-03-01T17:51:57.471Z,51.63
2019-03-01T17:57:02.028Z,51.54
2019-03-01T18:02:06.380Z,51.86
2019-03-01T18:07:10.819Z,51.85
2019-03-01T18:12:17.486Z,52.02
2019-03-01T18:17:21.070Z,52.12
2019-03-01T18:22:26.401Z,52.24
2019-03-01T18:27:31.316Z,52.60
2019-03-01T18:32:35.547Z,53.40
2019-03-01T18:37:39.793Z,53.40
2019-03-01T18:42:44.022Z,54.12
2019-03-01T18:47:48.257Z,54.94
2019-03-01T18:52:53.231Z,55.08
2019-03-01T18:57:58.411Z,55.11
2019-03-01T19:03:04.352Z,55.29
2019-03-01T19:08:08.710Z,55.47
2019-03-01T19:13:12.952Z,55.95
2019-03-01T19:18:17.762Z,56.03
2019-03-01T19:23:22.040Z,56.25
2019-03-01T19:28:26.858Z,56.67
2019-03-01T19:33:34.714Z,56.41
2019-03-01T19:38:38.014Z,56.77
2019-03-01T19:43:45.367Z,56.78
2019-03-01T19:48:48.816Z,57.46
2019-03-01T19:53:53.196Z,57.51
2019-03-01T19:58:59.295Z,57.21
2019-03-01T20:04:04.060Z,57.51
2019-03-01T20:09:09.790Z,57.50
2019-03-01T20:14:16.869Z,57.24
2019-03-01T20:19:21.846Z,56.78
2019-03-01T20:24:26.875Z,57.54
2019-03-01T20:29:31.362Z,57.37
2019-03-01T20:34:37.943Z,57.59
2019-03-01T20:39:44.182Z,57.88
2019-03-01T20:44:50.351Z,57.96
2019-03-01T20:49:55.886Z,57.79
2019-03-01T20:55:01.669Z,57.78
2019-03-01T21:00:08.334Z,57.85
2019-03-01T21:05:13.088Z,57.76
2019-03-01T21:10:19.580Z,57.84
2019-03-01T21:15:23.863Z,57.56
2019-03-01T21:20:28.822Z,58.28
2019-03-01T21:25:35.822Z,58.33
2019-03-01T21:30:39.126Z,58.08
2019-03-01T21:35:43.402Z,57.93
2019-03-01T21:40:47.657Z,58.18
2019-03-01T21:45:51.921Z,57.98
2019-03-01T21:50:56.160Z,58.26
2019-03-01T21:56:00.590Z,58.40
2019-03-01T22:01:07.180Z,58.51
2019-03-01T22:06:11.392Z,58.60
2019-03-01T22:11:16.050Z,58.68
2019-03-01T22:16:20.275Z,59.27
2019-03-01T22:21:24.544Z,58.39
2019-03-01T22:26:28.841Z,58.67
2019-03-01T22:31:35.453Z,58.70
2019-03-01T22:36:39.148Z,58.36
2019-03-01T22:41:43.708Z,58.31
2019-03-01T22:46:48.046Z,58.48
2019-03-01T22:51:52.966Z,58.22
2019-03-01T22:56:58.155Z,58.79
2019-03-01T23:02:08.054Z,59.17
2019-03-01T23:07:11.638Z,59.33
2019-03-01T23:12:16.090Z,58.87
2019-03-01T23:17:20.429Z,59.25
2019-03-01T23:22:24.865Z,59.38
2019-03-01T23:27:31.810Z,59.14
2019-03-01T23:32:35.148Z,59.98
2019-03-01T23:37:39.901Z,59.50
2019-03-01T23:42:44.772Z,58.97
2019-03-01T23:47:48.994Z,59.16
2019-03-01T23:52:54.865Z,59.01
2019-03-01T23:58:05.685Z,58.89
